createdAt,value
2023-05-24T00:00:14.203Z,15.60
2023-05-24T00:03:04.985Z,15.40
2023-05-24T00:05:41.539Z,15.40
2023-05-24T00:08:11.121Z,15.40
2023-05-24T00:10:39.223Z,15.40
2023-05-24T00:13:07.144Z,15.30
2023-05-24T00:15:34.220Z,16.10
2023-05-24T00:18:04.003Z,15.10
2023-05-24T00:20:32.907Z,15.10
2023-05-24T00:23:01.591Z,14.90
2023-05-24T00:25:30.580Z,14.90
2023-05-24T00:28:00.401Z,14.80
2023-05-24T00:30:29.031Z,14.70
2023-05-24T00:32:57.554Z,14.50
2023-05-24T00:35:26.305Z,14.50
2023-05-24T00:37:55.154Z,14.40
2023-05-24T00:40:23.321Z,14.30
2023-05-24T00:42:52.854Z,14.20
2023-05-24T00:45:21.482Z,14.10
2023-05-24T00:50:22.853Z,14.00
2023-05-24T00:52:53.717Z,14.00
2023-05-24T00:55:20.968Z,13.90
2023-05-24T00:57:48.354Z,13.90
2023-05-24T01:00:15.859Z,13.70
2023-05-24T01:02:43.408Z,13.70
2023-05-24T01:05:13.761Z,13.70
2023-05-24T01:08:15.768Z,13.70
2023-05-24T01:11:02.651Z,13.70
2023-05-24T01:13:55.249Z,13.60
2023-05-24T01:16:32.656Z,13.50
2023-05-24T01:19:18.557Z,13.50
2023-05-24T01:21:56.293Z,13.50
2023-05-24T01:24:53.974Z,13.50
2023-05-24T01:27:22.906Z,13.50
2023-05-24T01:29:53.579Z,13.50
2023-05-24T01:32:21.521Z,13.50
2023-05-24T01:34:48.956Z,13.60
2023-05-24T01:37:16.120Z,13.60
2023-05-24T01:39:43.530Z,13.60
2023-05-24T01:42:27.423Z,13.60
2023-05-24T01:45:08.524Z,13.60
2023-05-24T01:47:43.403Z,13.60
2023-05-24T01:50:40.078Z,16.00
2023-05-24T01:53:09.212Z,13.50
2023-05-24T01:55:38.062Z,13.50
2023-05-24T01:58:07.207Z,13.50
2023-05-24T02:00:35.206Z,13.50
2023-05-24T02:03:03.430Z,13.50
2023-05-24T02:05:33.345Z,13.50
2023-05-24T02:08:00.459Z,13.60
2023-05-24T02:10:27.903Z,13.60
2023-05-24T02:12:54.904Z,13.60
2023-05-24T02:15:22.317Z,13.50
2023-05-24T02:17:49.332Z,13.50
2023-05-24T02:20:17.578Z,13.50
2023-05-24T02:22:44.690Z,13.40
2023-05-24T02:25:12.408Z,13.30
2023-05-24T02:27:39.467Z,13.30
2023-05-24T02:30:07.845Z,13.20
2023-05-24T02:32:35.211Z,13.20
2023-05-24T02:35:03.119Z,13.10
2023-05-24T02:37:30.284Z,13.10
2023-05-24T02:39:57.699Z,13.00
2023-05-24T02:42:24.872Z,13.00
2023-05-24T02:44:52.949Z,13.00
2023-05-24T02:47:20.253Z,12.90
2023-05-24T02:49:47.978Z,12.90
2023-05-24T02:52:16.111Z,12.80
2023-05-24T02:54:43.771Z,12.80
2023-05-24T02:57:11.692Z,12.80
2023-05-24T02:59:39.432Z,12.80
2023-05-24T03:02:06.859Z,12.80
2023-05-24T03:04:34.672Z,12.80
2023-05-24T03:07:01.670Z,12.80
2023-05-24T03:09:29.036Z,12.90
2023-05-24T03:11:56.169Z,12.90
2023-05-24T03:14:25.025Z,13.00
2023-05-24T03:16:52.176Z,13.00
2023-05-24T03:19:19.736Z,13.00
2023-05-24T03:21:46.932Z,13.00
2023-05-24T03:24:14.373Z,13.00
2023-05-24T03:26:41.453Z,13.00
2023-05-24T03:29:09.022Z,13.00
2023-05-24T03:31:36.149Z,13.00
2023-05-24T03:34:03.647Z,13.00
2023-05-24T03:36:30.980Z,13.10
2023-05-24T03:38:59.242Z,13.10
2023-05-24T03:41:27.656Z,13.10
2023-05-24T03:43:55.078Z,13.10
2023-05-24T03:46:22.472Z,13.20
2023-05-24T03:48:50.449Z,13.20
2023-05-24T03:51:17.570Z,13.20
2023-05-24T03:53:45.110Z,13.30
2023-05-24T03:56:12.293Z,13.40
2023-05-24T03:58:39.899Z,13.60
2023-05-24T04:01:06.980Z,12.60
2023-05-24T04:03:34.569Z,13.90
2023-05-24T04:06:01.687Z,14.10
2023-05-24T04:08:29.173Z,14.30
2023-05-24T04:10:56.300Z,14.50
2023-05-24T04:13:23.784Z,14.60
2023-05-24T04:15:50.815Z,14.70
2023-05-24T04:18:18.502Z,14.90
2023-05-24T04:20:45.728Z,15.00
2023-05-24T04:23:13.186Z,15.10
2023-05-24T04:25:40.652Z,15.20
2023-05-24T04:28:08.577Z,15.20
2023-05-24T04:30:36.899Z,15.20
2023-05-24T04:33:04.830Z,15.30
2023-05-24T04:35:31.962Z,15.30
2023-05-24T04:37:59.916Z,15.40
2023-05-24T04:40:26.994Z,15.40
2023-05-24T04:42:54.846Z,15.50
2023-05-24T04:45:21.933Z,15.70
2023-05-24T04:47:49.368Z,15.80
2023-05-24T04:50:16.708Z,15.90
2023-05-24T04:52:44.301Z,16.10
2023-05-24T04:55:11.496Z,16.20
2023-05-24T04:57:39.402Z,16.30
2023-05-24T05:00:08.229Z,16.40
2023-05-24T05:02:36.186Z,16.40
2023-05-24T05:05:03.541Z,16.50
2023-05-24T05:07:31.156Z,16.50
2023-05-24T05:09:58.186Z,16.50
2023-05-24T05:12:25.574Z,16.50
2023-05-24T05:14:52.696Z,16.40
2023-05-24T05:17:20.126Z,16.30
2023-05-24T05:19:47.534Z,16.30
2023-05-24T05:22:16.555Z,16.20
2023-05-24T05:24:43.641Z,16.20
2023-05-24T05:27:11.215Z,16.10
2023-05-24T05:29:38.265Z,16.20
2023-05-24T05:32:06.604Z,16.20
2023-05-24T05:34:33.886Z,16.20
2023-05-24T05:37:01.696Z,19.00
2023-05-24T05:39:28.809Z,16.20
2023-05-24T05:41:56.387Z,16.30
2023-05-24T05:44:23.431Z,16.40
2023-05-24T05:46:51.349Z,16.40
2023-05-24T05:49:18.680Z,16.50
2023-05-24T05:51:47.278Z,16.50
2023-05-24T05:54:15.729Z,16.50
2023-05-24T05:56:48.179Z,16.60
2023-05-24T05:59:16.019Z,16.70
2023-05-24T06:01:45.818Z,16.60
2023-05-24T06:04:13.923Z,16.60
2023-05-24T06:06:41.943Z,16.60
2023-05-24T06:09:09.264Z,16.60
2023-05-24T06:11:37.239Z,16.70
2023-05-24T06:14:04.561Z,16.80
2023-05-24T06:16:32.708Z,16.80
2023-05-24T06:19:05.909Z,16.80
2023-05-24T06:21:37.432Z,16.90
2023-05-24T06:24:05.027Z,16.80
2023-05-24T06:26:32.353Z,16.80
2023-05-24T06:28:59.337Z,16.90
2023-05-24T06:31:26.541Z,16.90
2023-05-24T06:34:03.774Z,17.00
2023-05-24T06:36:42.859Z,17.10
2023-05-24T06:39:11.030Z,17.20
2023-05-24T06:41:39.100Z,17.30
2023-05-24T06:44:06.751Z,17.40
2023-05-24T06:46:34.132Z,17.40
2023-05-24T06:49:02.050Z,17.40
2023-05-24T06:51:29.624Z,17.40
2023-05-24T06:53:57.085Z,17.50
2023-05-24T06:56:24.177Z,17.50
2023-05-24T06:58:51.964Z,17.60
2023-05-24T07:01:19.178Z,17.70
2023-05-24T07:03:47.141Z,17.80
2023-05-24T07:06:15.209Z,16.40
2023-05-24T07:08:42.806Z,18.10
2023-05-24T07:11:10.172Z,18.20
2023-05-24T07:13:38.091Z,18.30
2023-05-24T07:16:06.490Z,18.40
2023-05-24T07:18:34.246Z,18.60
2023-05-24T07:21:01.420Z,18.50
2023-05-24T07:23:28.890Z,18.40
2023-05-24T07:25:55.910Z,18.50
2023-05-24T07:28:23.511Z,18.50
2023-05-24T07:30:51.348Z,18.40
2023-05-24T07:33:19.149Z,18.60
2023-05-24T07:35:51.301Z,18.90
2023-05-24T07:38:19.379Z,19.10
2023-05-24T07:40:46.606Z,19.30
2023-05-24T07:43:14.083Z,19.60
2023-05-24T07:45:41.489Z,19.70
2023-05-24T07:48:09.295Z,19.90
2023-05-24T07:50:36.380Z,20.00
2023-05-24T07:53:05.465Z,20.30
2023-05-24T07:55:32.778Z,20.50
2023-05-24T07:58:00.487Z,20.30
2023-05-24T08:00:27.927Z,20.10
2023-05-24T08:02:55.676Z,19.90
2023-05-24T08:05:23.082Z,19.70
2023-05-24T08:07:50.730Z,19.50
2023-05-24T08:10:18.770Z,19.30
2023-05-24T08:12:46.873Z,19.20
2023-05-24T08:15:13.957Z,19.10
2023-05-24T08:17:41.910Z,19.10
2023-05-24T08:20:10.272Z,19.00
2023-05-24T08:22:37.859Z,19.10
2023-05-24T08:25:06.521Z,19.40
2023-05-24T08:27:34.201Z,19.80
2023-05-24T08:30:01.801Z,19.90
2023-05-24T08:32:29.791Z,20.20
2023-05-24T08:35:06.825Z,20.50
2023-05-24T08:37:44.940Z,20.90
2023-05-24T08:40:12.524Z,21.60
2023-05-24T08:42:41.837Z,21.80
2023-05-24T08:45:14.425Z,21.90
2023-05-24T08:47:42.625Z,22.10
2023-05-24T08:50:10.493Z,22.80
2023-05-24T08:52:39.821Z,23.30
2023-05-24T08:55:07.538Z,23.30
2023-05-24T08:57:39.411Z,23.60
2023-05-24T09:00:11.314Z,23.80
2023-05-24T09:02:40.146Z,23.50
2023-05-24T09:05:11.424Z,23.40
2023-05-24T09:07:39.889Z,23.40
2023-05-24T09:10:08.645Z,23.90
2023-05-24T09:12:40.369Z,24.20
2023-05-24T09:15:08.903Z,25.30
2023-05-24T09:17:38.200Z,26.80
2023-05-24T09:20:11.507Z,27.60
2023-05-24T09:22:44.153Z,28.90
2023-05-24T09:25:14.333Z,29.60
2023-05-24T09:27:49.083Z,29.90
2023-05-24T09:30:16.503Z,30.80
2023-05-24T09:33:00.998Z,30.20
2023-05-24T09:35:28.634Z,28.50
2023-05-24T09:38:00.256Z,26.70
2023-05-24T09:40:28.259Z,25.40
2023-05-24T09:43:10.200Z,24.70
2023-05-24T09:45:47.647Z,24.40
2023-05-24T09:48:17.418Z,25.80
2023-05-24T09:50:47.600Z,26.40
2023-05-24T09:53:18.872Z,27.30
2023-05-24T09:55:46.505Z,28.50
2023-05-24T09:58:15.854Z,28.10
2023-05-24T10:00:43.728Z,27.50
2023-05-24T10:03:12.992Z,26.70
2023-05-24T10:05:44.624Z,26.30
2023-05-24T10:08:12.564Z,26.10
2023-05-24T10:10:40.100Z,26.00
2023-05-24T10:13:07.806Z,25.80
2023-05-24T10:15:35.016Z,26.00
2023-05-24T10:18:09.802Z,26.20
2023-05-24T10:20:41.879Z,25.80
2023-05-24T10:23:10.453Z,25.40
2023-05-24T10:25:45.015Z,25.20
2023-05-24T10:28:15.226Z,25.00
2023-05-24T10:30:45.737Z,26.20
2023-05-24T10:33:14.645Z,26.90
2023-05-24T10:35:43.493Z,27.10
2023-05-24T10:38:11.793Z,27.20
2023-05-24T10:40:43.716Z,26.00
2023-05-24T10:43:11.404Z,25.20
2023-05-24T10:45:40.292Z,24.20
2023-05-24T10:48:14.033Z,23.60
2023-05-24T10:50:42.618Z,23.10
2023-05-24T10:53:14.063Z,22.00
2023-05-24T10:55:56.497Z,22.00
2023-05-24T10:58:59.669Z,21.70
2023-05-24T11:01:32.031Z,21.50
2023-05-24T11:04:17.040Z,21.50
2023-05-24T11:07:09.816Z,21.60
2023-05-24T11:09:46.825Z,21.60
2023-05-24T11:12:18.203Z,21.90
2023-05-24T11:14:50.353Z,25.40
2023-05-24T11:17:23.280Z,28.10
2023-05-24T11:19:55.854Z,29.70
2023-05-24T11:22:25.772Z,29.50
2023-05-24T11:24:55.381Z,29.90
2023-05-24T11:27:25.400Z,29.70
2023-05-24T11:29:53.001Z,28.80
2023-05-24T11:32:21.470Z,28.10
2023-05-24T11:34:50.077Z,27.80
2023-05-24T11:37:18.698Z,26.80
2023-05-24T11:39:52.621Z,25.90
2023-05-24T11:42:23.350Z,25.40
2023-05-24T11:44:51.751Z,25.10
2023-05-24T11:47:20.969Z,24.90
2023-05-24T11:49:52.257Z,25.00
2023-05-24T11:52:19.599Z,25.00
2023-05-24T11:54:48.557Z,24.20
2023-05-24T11:57:16.368Z,23.60
2023-05-24T11:59:44.036Z,23.60
2023-05-24T12:02:11.224Z,23.60
2023-05-24T12:04:39.319Z,23.40
2023-05-24T12:07:12.134Z,23.40
2023-05-24T12:09:39.812Z,23.80
2023-05-24T12:12:07.495Z,23.70
2023-05-24T12:14:36.286Z,23.10
2023-05-24T12:17:03.399Z,22.70
2023-05-24T12:19:35.173Z,22.70
2023-05-24T12:22:07.535Z,22.80
2023-05-24T12:24:37.445Z,22.40
2023-05-24T12:27:08.794Z,23.00
2023-05-24T12:29:38.655Z,24.00
2023-05-24T12:32:11.955Z,24.90
2023-05-24T12:34:44.262Z,25.00
2023-05-24T12:37:13.439Z,25.80
2023-05-24T12:39:43.102Z,26.60
2023-05-24T12:42:14.789Z,26.70
2023-05-24T12:45:01.953Z,27.50
2023-05-24T12:47:54.783Z,28.80
2023-05-24T12:50:42.183Z,29.30
2023-05-24T12:53:10.134Z,29.60
2023-05-24T12:55:37.957Z,29.50
2023-05-24T12:58:08.269Z,29.00
2023-05-24T13:00:35.983Z,29.40
2023-05-24T13:05:46.095Z,29.10
2023-05-24T13:08:13.636Z,28.70
2023-05-24T13:10:41.149Z,29.10
2023-05-24T13:13:08.263Z,28.80
2023-05-24T13:15:36.319Z,28.40
2023-05-24T13:18:03.393Z,28.40
2023-05-24T13:20:30.973Z,28.40
2023-05-24T13:22:58.064Z,28.70
2023-05-24T13:25:26.690Z,28.30
2023-05-24T13:27:53.899Z,27.40
2023-05-24T13:30:27.580Z,27.20
2023-05-24T13:32:56.005Z,26.60
2023-05-24T13:35:23.609Z,26.20
2023-05-24T13:37:54.865Z,26.80
2023-05-24T13:40:25.027Z,27.20
2023-05-24T13:42:52.980Z,27.60
2023-05-24T13:45:20.349Z,27.90
2023-05-24T13:47:47.598Z,28.40
2023-05-24T13:50:15.351Z,28.50
2023-05-24T13:52:42.624Z,28.10
2023-05-24T13:55:10.483Z,27.70
2023-05-24T13:57:49.609Z,27.50
2023-05-24T14:00:19.694Z,27.30
2023-05-24T14:02:47.049Z,26.60
2023-05-24T14:05:26.831Z,25.90
2023-05-24T14:07:55.672Z,26.10
2023-05-24T14:10:23.703Z,25.10
2023-05-24T14:13:07.919Z,24.70
2023-05-24T14:15:39.023Z,24.20
2023-05-24T14:18:08.521Z,24.10
2023-05-24T14:20:38.253Z,24.40
2023-05-24T14:23:06.833Z,24.20
2023-05-24T14:25:34.605Z,24.30
2023-05-24T14:28:01.858Z,24.70
2023-05-24T14:30:30.760Z,25.40
2023-05-24T14:33:00.731Z,25.80
2023-05-24T14:35:29.213Z,25.70
2023-05-24T14:37:56.391Z,25.00
2023-05-24T14:40:24.163Z,24.90
2023-05-24T14:42:51.295Z,24.40
2023-05-24T14:45:18.732Z,24.40
2023-05-24T14:47:46.000Z,24.90
2023-05-24T14:50:13.631Z,24.60
2023-05-24T14:52:40.805Z,24.30
2023-05-24T14:55:08.643Z,24.30
2023-05-24T14:57:37.652Z,24.20
2023-05-24T15:00:06.408Z,23.80
2023-05-24T15:02:34.260Z,23.60
2023-05-24T15:05:02.382Z,23.40
2023-05-24T15:07:29.530Z,22.70
2023-05-24T15:09:57.349Z,22.20
2023-05-24T15:12:24.380Z,21.50
2023-05-24T15:14:52.066Z,20.70
2023-05-24T15:17:21.572Z,20.20
2023-05-24T15:19:49.386Z,19.90
2023-05-24T15:22:16.549Z,19.70
2023-05-24T15:24:45.453Z,19.50
2023-05-24T15:27:12.548Z,19.40
2023-05-24T15:29:39.883Z,19.30
2023-05-24T15:32:07.329Z,19.20
2023-05-24T15:34:34.765Z,19.20
2023-05-24T15:37:01.882Z,19.10
2023-05-24T15:39:29.292Z,19.00
2023-05-24T15:41:57.031Z,18.90
2023-05-24T15:44:24.853Z,18.70
2023-05-24T15:46:52.086Z,18.70
2023-05-24T15:49:19.787Z,18.60
2023-05-24T15:52:03.848Z,18.60
2023-05-24T15:54:32.120Z,18.40
2023-05-24T15:57:01.971Z,18.30
2023-05-24T15:59:29.597Z,18.10
2023-05-24T16:01:57.119Z,18.00
2023-05-24T16:04:24.594Z,17.90
2023-05-24T16:06:51.703Z,17.90
2023-05-24T16:09:19.129Z,17.80
2023-05-24T16:11:47.662Z,17.80
2023-05-24T16:14:16.162Z,17.70
2023-05-24T16:16:44.714Z,17.50
2023-05-24T16:19:12.454Z,17.40
2023-05-24T16:21:39.676Z,17.30
2023-05-24T16:24:07.188Z,17.30
2023-05-24T16:26:34.254Z,17.30
2023-05-24T16:29:03.069Z,17.20
2023-05-24T16:31:31.446Z,17.20
2023-05-24T16:33:59.173Z,17.20
2023-05-24T16:36:27.099Z,17.30
2023-05-24T16:38:54.692Z,17.20
2023-05-24T16:41:22.013Z,17.00
2023-05-24T16:43:49.537Z,17.00
2023-05-24T16:46:16.663Z,17.00
2023-05-24T16:48:44.306Z,17.00
2023-05-24T16:51:11.498Z,16.90
2023-05-24T16:53:39.214Z,16.80
2023-05-24T16:56:06.633Z,16.70
2023-05-24T16:58:33.984Z,16.60
2023-05-24T17:01:01.412Z,16.60
2023-05-24T17:03:30.438Z,16.50
2023-05-24T17:06:03.436Z,16.40
2023-05-24T17:08:35.904Z,16.30
2023-05-24T17:11:06.833Z,16.20
2023-05-24T17:13:34.748Z,16.20
2023-05-24T17:16:03.850Z,16.10
2023-05-24T17:18:31.491Z,16.10
2023-05-24T17:21:00.679Z,16.10
2023-05-24T17:23:33.679Z,16.10
2023-05-24T17:26:02.757Z,16.10
2023-05-24T17:28:30.609Z,16.10
2023-05-24T17:30:59.425Z,16.10
2023-05-24T17:33:29.539Z,16.00
2023-05-24T17:35:57.386Z,15.80
2023-05-24T17:38:25.670Z,15.80
2023-05-24T17:40:57.089Z,15.70
2023-05-24T17:43:32.957Z,15.60
2023-05-24T17:46:08.338Z,15.50
2023-05-24T17:48:37.438Z,15.40
2023-05-24T17:51:06.470Z,15.40
2023-05-24T17:53:35.510Z,15.30
2023-05-24T17:56:03.347Z,15.20
2023-05-24T17:58:32.942Z,15.10
2023-05-24T18:01:00.117Z,15.00
2023-05-24T18:03:28.460Z,14.90
2023-05-24T18:05:56.683Z,14.80
2023-05-24T18:08:25.553Z,14.70
2023-05-24T18:10:52.979Z,14.60
2023-05-24T18:13:21.731Z,14.50
2023-05-24T18:15:50.263Z,14.50
2023-05-24T18:18:17.868Z,14.50
2023-05-24T18:20:45.618Z,14.40
2023-05-24T18:23:12.949Z,14.40
2023-05-24T18:25:40.024Z,14.30
2023-05-24T18:28:08.182Z,14.30
2023-05-24T18:30:35.311Z,14.20
2023-05-24T18:33:07.645Z,14.20
2023-05-24T18:35:35.864Z,14.10
2023-05-24T18:38:04.873Z,14.10
2023-05-24T18:40:32.122Z,14.00
2023-05-24T18:42:59.706Z,14.00
2023-05-24T18:45:26.707Z,13.90
2023-05-24T18:47:55.551Z,13.80
2023-05-24T18:50:23.440Z,13.80
2023-05-24T18:52:51.573Z,13.60
2023-05-24T18:55:18.831Z,13.60
2023-05-24T18:57:47.036Z,13.50
2023-05-24T19:00:14.337Z,13.50
2023-05-24T19:02:42.042Z,13.40
2023-05-24T19:05:09.504Z,12.80
2023-05-24T19:07:37.468Z,13.30
2023-05-24T19:10:05.162Z,13.20
2023-05-24T19:12:32.510Z,13.20
2023-05-24T19:15:00.128Z,13.20
2023-05-24T19:17:27.672Z,13.20
2023-05-24T19:19:55.024Z,13.20
2023-05-24T19:22:22.703Z,13.20
2023-05-24T19:24:49.966Z,13.20
2023-05-24T19:27:19.427Z,13.20
2023-05-24T19:29:46.625Z,13.20
2023-05-24T19:32:14.916Z,13.10
2023-05-24T19:34:42.678Z,13.10
2023-05-24T19:37:11.053Z,13.10
2023-05-24T19:39:38.287Z,13.10
2023-05-24T19:42:06.680Z,13.10
2023-05-24T19:44:34.053Z,13.10
2023-05-24T19:47:01.716Z,13.10
2023-05-24T19:49:28.998Z,13.20
2023-05-24T19:51:56.689Z,13.20
2023-05-24T19:54:23.658Z,13.20
2023-05-24T19:56:52.692Z,13.20
2023-05-24T19:59:19.897Z,13.20
2023-05-24T20:01:48.813Z,13.20
2023-05-24T20:04:16.151Z,13.10
2023-05-24T20:06:43.997Z,13.10
2023-05-24T20:09:12.082Z,13.00
2023-05-24T20:11:39.949Z,13.00
2023-05-24T20:14:07.553Z,13.00
2023-05-24T20:16:36.813Z,12.90
2023-05-24T20:19:04.275Z,12.90
2023-05-24T20:21:32.788Z,12.80
2023-05-24T20:24:00.050Z,12.80
2023-05-24T20:26:27.598Z,12.80
2023-05-24T20:28:54.975Z,12.70
2023-05-24T20:31:22.876Z,12.70
2023-05-24T20:33:51.597Z,12.70
2023-05-24T20:36:20.861Z,12.60
2023-05-24T20:38:49.107Z,12.60
2023-05-24T20:41:17.871Z,12.60
2023-05-24T20:43:45.503Z,12.50
2023-05-24T20:46:14.537Z,12.50
2023-05-24T20:48:43.283Z,12.50
2023-05-24T20:51:11.057Z,12.40
2023-05-24T20:53:39.107Z,12.40
2023-05-24T20:56:06.579Z,12.30
2023-05-24T20:58:33.583Z,12.30
2023-05-24T21:01:01.365Z,12.20
2023-05-24T21:03:29.017Z,12.20
2023-05-24T21:05:56.490Z,12.10
2023-05-24T21:08:23.680Z,12.10
2023-05-24T21:10:51.186Z,12.10
2023-05-24T21:13:20.443Z,12.00
2023-05-24T21:15:48.079Z,12.00
2023-05-24T21:18:15.449Z,12.00
2023-05-24T21:20:42.918Z,11.90
2023-05-24T21:23:10.550Z,11.90
2023-05-24T21:25:37.981Z,11.80
2023-05-24T21:28:05.059Z,11.80
2023-05-24T21:30:32.518Z,11.80
2023-05-24T21:32:59.771Z,11.80
2023-05-24T21:35:27.911Z,11.70
2023-05-24T21:37:54.949Z,11.70
2023-05-24T21:40:22.580Z,11.70
2023-05-24T21:42:49.624Z,11.70
2023-05-24T21:45:17.015Z,11.70
2023-05-24T21:47:44.081Z,11.70
2023-05-24T21:50:11.572Z,11.70
2023-05-24T21:52:39.467Z,11.70
2023-05-24T21:55:07.008Z,11.60
2023-05-24T21:57:36.994Z,11.60
2023-05-24T22:00:05.192Z,10.70
2023-05-24T22:02:32.434Z,11.60
2023-05-24T22:05:02.444Z,11.60
2023-05-24T22:07:29.403Z,11.60
2023-05-24T22:09:56.713Z,11.50
2023-05-24T22:12:23.744Z,11.50
2023-05-24T22:14:51.262Z,11.40
2023-05-24T22:22:19.528Z,11.40
2023-05-24T22:24:50.131Z,11.40
2023-05-24T22:27:17.170Z,11.40
2023-05-24T22:29:44.434Z,11.40
2023-05-24T22:32:11.564Z,11.30
2023-05-24T22:34:39.172Z,11.40
2023-05-24T22:37:07.658Z,11.30
2023-05-24T22:39:34.989Z,11.40
2023-05-24T22:42:02.033Z,11.40
2023-05-24T22:44:29.565Z,11.40
2023-05-24T22:46:56.634Z,11.40
2023-05-24T22:49:24.937Z,11.40
2023-05-24T22:51:53.460Z,11.40
2023-05-24T22:54:21.006Z,11.40
2023-05-24T22:56:48.130Z,11.40
2023-05-24T22:59:15.734Z,11.40
2023-05-24T23:01:44.772Z,11.50
2023-05-24T23:04:21.174Z,11.50
2023-05-24T23:06:52.680Z,11.60
2023-05-24T23:09:34.897Z,11.80
2023-05-24T23:12:07.588Z,11.80
2023-05-24T23:14:41.504Z,11.90
2023-05-24T23:17:15.688Z,11.80
2023-05-24T23:19:43.707Z,11.90
2023-05-24T23:22:12.407Z,11.90
2023-05-24T23:24:42.918Z,12.00
2023-05-24T23:27:10.226Z,12.00
2023-05-24T23:29:40.634Z,12.00
2023-05-24T23:32:08.675Z,11.90
2023-05-24T23:34:36.649Z,11.90
2023-05-24T23:37:04.782Z,11.80
2023-05-24T23:39:32.276Z,11.70
2023-05-24T23:41:59.368Z,11.70
2023-05-24T23:44:26.621Z,11.70
2023-05-24T23:46:53.981Z,11.70
2023-05-24T23:49:21.464Z,11.70
2023-05-24T23:51:48.577Z,11.70
2023-05-24T23:54:15.985Z,11.70
2023-05-24T23:56:42.975Z,11.80
2023-05-24T23:59:10.555Z,11.70
